Weather reports worldwide

Advertisment
Formigueres, France (7737): temperature & dewpoint: 18.06.2018 11:00:00 - 24.06.2018 11:00:00 (CEST)Formigueres, France (7737): wind speed & gusts: 18.06.2018 11:00:00 - 24.06.2018 11:00:00 (CEST)Formigueres, France (7737): wind direction: 18.06.2018 11:00:00 - 24.06.2018 11:00:00 (CEST)Formigueres, France (7737): precipitation: 18.06.2018 11:00:00 - 24.06.2018 11:00:00 (CEST)
Date & Time tt [°C] td [°C] ff [km/h] ff [kn] fx [km/h] fx [kn] dd rr [mm]
24.06.2018 11:00:00 - - - - - - - -
24.06.2018 10:00:00 17,2 9,4 4 2 9 5 NE 0,0
24.06.2018 09:00:00 13,3 8,6 4 2 8 4 NE 0,0
24.06.2018 08:00:00 10,3 5,5 0 0 15 8 N -
24.06.2018 07:00:00 5,1 2,8 8 4 22 12 SW 0,0
24.06.2018 06:00:00 5,8 3,1 13 7 18 10 WSW 0,0
24.06.2018 05:00:00 6,0 1,3 11 6 22 12 WSW 0,0
24.06.2018 04:00:00 6,0 1,5 15 8 21 11 WSW 0,0
24.06.2018 03:00:00 6,5 2,4 9 5 18 10 W 0,0
24.06.2018 02:00:00 7,3 3,5 9 5 16 9 WSW -
24.06.2018 01:00:00 7,0 3,8 8 4 16 9 WSW 0,0
24.06.2018 00:00:00 8,0 5,3 11 6 16 9 W 0,0
23.06.2018 23:00:00 9,5 6,8 11 6 18 10 WSW 0,0
23.06.2018 22:00:00 10,5 7,4 5 3 18 10 WSW 0,0
23.06.2018 21:00:00 13,1 8,0 11 6 22 12 N 0,0
23.06.2018 20:00:00 17,1 9,5 15 8 31 17 N -
23.06.2018 19:00:00 18,0 9,1 22 12 35 19 NNE 0,0
23.06.2018 18:00:00 18,7 11,0 22 12 39 21 NNE 0,0
23.06.2018 17:00:00 19,0 11,1 24 13 41 22 N 0,0
23.06.2018 16:00:00 19,7 12,0 24 13 41 22 NNE 0,0
23.06.2018 15:00:00 19,7 11,5 24 13 41 22 N 0,0
23.06.2018 14:00:00 19,7 10,9 18 10 37 20 NNE -
23.06.2018 13:00:00 18,5 10,1 24 13 41 22 NNE 0,0
23.06.2018 12:00:00 17,9 10,5 22 12 39 21 NNE 0,0
23.06.2018 11:00:00 17,4 9,8 21 11 34 18 NNE 0,0
23.06.2018 10:00:00 16,0 9,2 8 4 16 9 NNE 0,0
23.06.2018 09:00:00 13,8 8,2 5 3 11 6 NE 0,0
23.06.2018 08:00:00 10,9 5,8 0 0 18 10 N -
23.06.2018 07:00:00 5,3 1,8 9 5 18 10 WSW 0,0
23.06.2018 06:00:00 5,1 2,3 11 6 18 10 WSW 0,0
23.06.2018 05:00:00 6,3 3,3 15 8 21 11 WSW 0,0
23.06.2018 04:00:00 7,6 5,1 11 6 18 10 W 0,0
23.06.2018 03:00:00 8,9 7,3 5 3 13 7 WSW 0,0
23.06.2018 02:00:00 10,2 8,1 5 3 13 7 S -
23.06.2018 01:00:00 11,3 9,0 13 7 31 17 N 0,0
23.06.2018 00:00:00 11,3 9,4 16 9 29 16 NNW 0,0
22.06.2018 23:00:00 11,7 9,8 16 9 41 22 N 0,0
22.06.2018 22:00:00 12,5 10,6 18 10 41 22 N 0,0
22.06.2018 21:00:00 13,5 11,5 26 14 42 23 NNE 0,0
22.06.2018 20:00:00 14,5 12,0 22 12 44 24 NNE -
22.06.2018 19:00:00 15,6 12,3 31 17 52 28 NNE 0,0
22.06.2018 18:00:00 15,9 12,3 29 16 54 29 NNE 0,0
22.06.2018 17:00:00 18,2 13,5 29 16 52 28 NNE 0,0
22.06.2018 16:00:00 18,8 13,9 29 16 48 26 N 0,0
22.06.2018 15:00:00 19,4 14,4 28 15 44 24 NNE 0,0
22.06.2018 14:00:00 18,8 14,1 29 16 57 31 N -
22.06.2018 13:00:00 19,3 13,7 26 14 42 23 NNE 0,0
22.06.2018 12:00:00 18,9 13,5 24 13 39 21 NNE 0,0
22.06.2018 11:00:00 19,6 13,8 16 9 31 17 NNE 0,0
22.06.2018 10:00:00 17,2 13,1 15 8 28 15 NNE 0,0
22.06.2018 09:00:00 14,6 12,8 15 8 29 16 NNE 0,0
22.06.2018 08:00:00 - - - - - - - -
22.06.2018 07:00:00 13,5 12,7 8 4 22 12 NNE 0,0
22.06.2018 06:00:00 12,2 11,1 4 2 15 8 SW 0,2
22.06.2018 05:00:00 10,9 9,5 2 1 18 10 WNW 0,0
22.06.2018 04:00:00 11,4 9,6 9 5 22 12 WSW 0,0
22.06.2018 03:00:00 11,0 9,6 4 2 15 8 E 0,0
22.06.2018 02:00:00 11,5 9,9 4 2 18 10 WSW -
22.06.2018 01:00:00 13,4 11,3 8 4 22 12 W 0,0
22.06.2018 00:00:00 14,2 12,8 11 6 24 13 N 0,2
21.06.2018 23:00:00 14,7 13,1 18 10 29 16 N 0,0
21.06.2018 22:00:00 15,1 13,6 15 8 34 18 N 0,0
21.06.2018 21:00:00 16,2 14,2 24 13 41 22 N 0,0
21.06.2018 20:00:00 19,0 13,8 24 13 37 20 N -
21.06.2018 19:00:00 18,2 13,9 16 9 42 23 NNE 0,0
21.06.2018 18:00:00 19,0 14,7 18 10 37 20 NNE 0,0
21.06.2018 17:00:00 21,2 15,7 21 11 39 21 NNE 0,0
21.06.2018 16:00:00 21,3 14,9 22 12 42 23 NNE 0,0
21.06.2018 15:00:00 20,9 14,1 26 14 44 24 NNE 0,0
21.06.2018 14:00:00 18,2 13,7 16 9 37 20 NNE -
21.06.2018 13:00:00 21,7 14,1 18 10 41 22 NNE 0,0
21.06.2018 12:00:00 22,0 15,4 21 11 37 20 NNE 0,0
21.06.2018 11:00:00 20,8 13,7 21 11 34 18 NNE 0,0
21.06.2018 10:00:00 19,9 14,0 8 4 21 11 NNE 0,0
21.06.2018 09:00:00 16,7 12,2 4 2 8 4 NE 0,0
21.06.2018 08:00:00 13,8 9,4 0 0 11 6 N -
21.06.2018 07:00:00 8,8 5,5 8 4 18 10 WSW 0,0
21.06.2018 06:00:00 8,7 5,6 11 6 18 10 WSW 0,0
21.06.2018 05:00:00 9,6 5,4 13 7 21 11 WSW 0,0
21.06.2018 04:00:00 9,5 5,5 9 5 21 11 WSW 0,0
21.06.2018 03:00:00 10,6 6,9 13 7 21 11 WSW 0,0
21.06.2018 02:00:00 11,5 8,0 11 6 21 11 W -
21.06.2018 01:00:00 12,0 8,8 8 4 18 10 WSW 0,0
21.06.2018 00:00:00 13,2 9,8 11 6 18 10 WSW 0,0
20.06.2018 23:00:00 14,5 10,9 11 6 18 10 W 0,0
20.06.2018 22:00:00 16,3 11,9 5 3 18 10 WSW 0,0
20.06.2018 21:00:00 17,7 12,2 9 5 16 9 NNW 0,0
20.06.2018 20:00:00 19,3 13,9 4 2 21 11 SSW -
20.06.2018 19:00:00 19,9 14,7 13 7 24 13 ESE 0,0
20.06.2018 18:00:00 19,8 14,6 15 8 34 18 ESE 0,0
20.06.2018 17:00:00 20,5 13,9 13 7 29 16 ENE 0,0
20.06.2018 16:00:00 23,4 14,4 9 5 34 18 NNE 0,0
20.06.2018 15:00:00 23,8 14,5 15 8 29 16 NNE 0,0
20.06.2018 14:00:00 23,7 12,7 16 9 28 15 ESE -
20.06.2018 13:00:00 23,3 11,7 16 9 28 15 ESE 0,0
20.06.2018 12:00:00 23,5 7,1 11 6 28 15 S 0,0
20.06.2018 11:00:00 22,6 7,2 13 7 28 15 SSE 0,0
20.06.2018 10:00:00 21,4 6,9 13 7 34 18 SSE 0,0
20.06.2018 09:00:00 19,4 6,1 13 7 26 14 S 0,0
20.06.2018 08:00:00 15,8 6,0 16 9 28 15 S -
20.06.2018 07:00:00 10,5 4,8 9 5 21 11 SW 0,0
20.06.2018 06:00:00 9,3 3,9 9 5 18 10 WSW 0,0
20.06.2018 05:00:00 10,2 5,8 9 5 18 10 SW 0,0
20.06.2018 04:00:00 10,9 8,8 11 6 21 11 WSW 0,0
20.06.2018 03:00:00 10,5 8,8 18 10 24 13 WSW 0,0
20.06.2018 02:00:00 10,6 9,5 13 7 21 11 WSW -
20.06.2018 01:00:00 9,5 7,3 5 3 15 8 WSW 0,0
20.06.2018 00:00:00 11,1 8,8 11 6 18 10 WSW 0,0
19.06.2018 23:00:00 12,0 10,1 13 7 18 10 WSW 0,0
19.06.2018 22:00:00 13,2 10,9 8 4 11 6 W 0,0
19.06.2018 21:00:00 14,8 11,8 4 2 16 9 N 0,0
19.06.2018 20:00:00 17,6 13,1 13 7 26 14 N -
19.06.2018 19:00:00 19,7 13,8 16 9 28 15 NNE 0,0
19.06.2018 18:00:00 20,3 14,4 16 9 29 16 NNE 0,0
19.06.2018 17:00:00 19,9 14,0 18 10 35 19 NNE 0,0
19.06.2018 16:00:00 19,6 13,8 22 12 35 19 N 0,0
19.06.2018 15:00:00 20,0 13,7 22 12 39 21 N 0,0
19.06.2018 14:00:00 19,6 13,5 21 11 34 18 NNE -
19.06.2018 13:00:00 18,8 12,5 18 10 34 18 NNE 0,0
19.06.2018 12:00:00 17,8 10,9 18 10 31 17 NNE 0,0
19.06.2018 11:00:00 16,8 8,7 16 9 35 19 NNE 0,0
19.06.2018 10:00:00 15,6 7,1 18 10 29 16 N 0,0
19.06.2018 09:00:00 14,3 8,3 15 8 28 15 N 0,0
19.06.2018 08:00:00 11,7 8,4 13 7 29 16 NNW -
19.06.2018 07:00:00 8,4 6,7 11 6 26 14 NW 0,0
19.06.2018 06:00:00 8,4 7,3 13 7 29 16 N 0,0
19.06.2018 05:00:00 8,4 6,9 15 8 31 17 NNW 0,0
19.06.2018 04:00:00 8,9 7,2 13 7 31 17 NW 0,0
19.06.2018 03:00:00 9,3 8,1 15 8 31 17 N 0,0
19.06.2018 02:00:00 9,5 7,4 16 9 31 17 N -
19.06.2018 01:00:00 10,0 7,6 16 9 34 18 N 0,0
19.06.2018 00:00:00 10,2 8,8 13 7 31 17 N 0,0
18.06.2018 23:00:00 10,2 8,8 18 10 35 19 N 0,0
18.06.2018 22:00:00 10,6 9,5 21 11 35 19 N 0,0
18.06.2018 21:00:00 10,8 9,2 18 10 34 18 N 0,0
18.06.2018 20:00:00 12,0 9,7 18 10 35 19 N -
18.06.2018 19:00:00 14,0 10,2 18 10 34 18 N 0,0
18.06.2018 18:00:00 12,6 10,1 24 13 41 22 N 0,0
18.06.2018 17:00:00 16,3 11,0 22 12 44 24 N 0,0
18.06.2018 16:00:00 17,2 10,8 24 13 42 23 NNE 0,0
18.06.2018 15:00:00 17,6 10,9 24 13 48 26 NNE 0,0
18.06.2018 14:00:00 16,9 10,7 24 13 48 26 NNE -
18.06.2018 13:00:00 15,8 9,0 29 16 50 27 NNE 0,0
18.06.2018 12:00:00 14,8 7,3 29 16 54 29 N 0,0
18.06.2018 11:00:00 14,5 6,1 28 15 46 25 NNE 0,0

tt = temperature
td = dewpoint
ff = wind speed
fx = gusts
dd = wind direction
rr = precipitation

Next stations